createdAt,value
2023-01-11T00:02:01.414Z,5.80
2023-01-11T00:04:30.299Z,5.78
2023-01-11T00:06:57.852Z,5.60
2023-01-11T00:09:24.519Z,5.60
2023-01-11T00:11:51.292Z,4.88
2023-01-11T00:14:17.869Z,5.18
2023-01-11T00:16:44.578Z,5.45
2023-01-11T00:19:11.345Z,5.90
2023-01-11T00:21:37.992Z,5.53
2023-01-11T00:24:04.846Z,5.47
2023-01-11T00:26:31.532Z,5.57
2023-01-11T00:28:58.060Z,5.80
2023-01-11T00:31:24.739Z,6.00
2023-01-11T00:33:51.403Z,5.82
2023-01-11T00:36:17.953Z,4.68
2023-01-11T00:38:46.422Z,5.40
2023-01-11T00:41:34.148Z,5.30
2023-01-11T00:44:19.688Z,5.03
2023-01-11T00:47:05.647Z,5.40
2023-01-11T00:49:32.804Z,5.40
2023-01-11T00:52:00.219Z,5.70
2023-01-11T00:54:27.333Z,5.38
2023-01-11T00:56:54.135Z,5.50
2023-01-11T00:59:20.860Z,5.50
2023-01-11T01:01:47.735Z,5.50
2023-01-11T01:04:14.487Z,5.65
2023-01-11T01:06:41.287Z,5.30
2023-01-11T01:09:08.106Z,5.20
2023-01-11T01:11:34.906Z,6.03
2023-01-11T01:14:20.044Z,5.45
2023-01-11T01:16:47.418Z,5.63
2023-01-11T01:19:15.440Z,5.90
2023-01-11T01:21:42.057Z,5.97
2023-01-11T01:24:09.025Z,6.07
2023-01-11T01:26:35.666Z,6.72
2023-01-11T01:29:02.304Z,6.95
2023-01-11T01:31:28.981Z,6.70
2023-01-11T01:33:55.783Z,6.90
2023-01-11T01:36:22.338Z,7.07
2023-01-11T01:38:48.935Z,7.32
2023-01-11T01:41:16.842Z,7.93
2023-01-11T01:43:59.067Z,7.03
2023-01-11T01:46:43.864Z,7.15
2023-01-11T01:49:16.222Z,7.45
2023-01-11T01:51:42.701Z,7.10
2023-01-11T01:54:22.637Z,7.32
2023-01-11T01:56:56.324Z,7.45
2023-01-11T01:59:25.622Z,6.63
2023-01-11T02:01:52.992Z,7.75
2023-01-11T02:04:22.065Z,8.25
2023-01-11T02:06:49.916Z,8.25
2023-01-11T02:09:25.259Z,8.48
2023-01-11T02:11:53.787Z,8.95
2023-01-11T02:14:21.403Z,8.75
2023-01-11T02:16:48.247Z,8.98
2023-01-11T02:19:35.024Z,9.43
2023-01-11T02:22:37.905Z,8.70
2023-01-11T02:25:24.330Z,8.82
2023-01-11T02:28:03.816Z,9.52
2023-01-11T02:30:49.188Z,9.43
2023-01-11T02:33:27.725Z,9.57
2023-01-11T02:36:13.598Z,9.48
2023-01-11T02:38:52.568Z,8.77
2023-01-11T02:42:07.787Z,9.13
2023-01-11T02:45:00.407Z,8.35
2023-01-11T02:47:55.738Z,9.02
2023-01-11T02:50:39.328Z,9.10
2023-01-11T02:53:30.821Z,8.88
2023-01-11T02:56:01.580Z,9.10
2023-01-11T02:58:32.637Z,9.10
2023-01-11T03:01:00.360Z,9.40
2023-01-11T03:03:30.091Z,8.90
2023-01-11T03:06:05.715Z,8.77
2023-01-11T03:09:00.354Z,8.90
2023-01-11T03:12:01.379Z,8.10
2023-01-11T03:15:03.437Z,9.23
2023-01-11T03:17:47.088Z,9.80
2023-01-11T03:20:35.244Z,9.63
2023-01-11T03:23:05.061Z,9.80
2023-01-11T03:25:54.519Z,10.38
2023-01-11T03:28:25.836Z,9.57
2023-01-11T03:31:02.180Z,10.43
2023-01-11T03:33:54.318Z,9.23
2023-01-11T03:36:32.644Z,9.93
2023-01-11T03:39:21.917Z,9.57
2023-01-11T03:41:51.443Z,10.48
2023-01-11T03:44:20.176Z,10.48
2023-01-11T03:46:51.521Z,9.80
2023-01-11T03:49:33.130Z,9.77
2023-01-11T03:52:01.945Z,10.70
2023-01-11T03:54:30.557Z,10.32
2023-01-11T03:57:01.533Z,10.55
2023-01-11T03:59:28.641Z,10.85
2023-01-11T04:01:56.185Z,10.00
2023-01-11T04:04:23.626Z,10.68
2023-01-11T04:06:50.248Z,8.13
2023-01-11T04:09:16.882Z,9.57
2023-01-11T04:11:43.493Z,10.68
2023-01-11T04:14:10.060Z,9.07
2023-01-11T04:16:36.883Z,9.77
2023-01-11T04:19:03.687Z,9.40
2023-01-11T04:21:30.323Z,8.50
2023-01-11T04:23:56.889Z,9.35
2023-01-11T04:26:23.468Z,9.25
2023-01-11T04:28:50.722Z,9.35
2023-01-11T04:31:18.319Z,9.20
2023-01-11T04:33:44.938Z,10.23
2023-01-11T04:36:12.001Z,9.23
2023-01-11T04:38:38.546Z,10.18
2023-01-11T04:41:24.155Z,12.13
2023-01-11T04:43:53.460Z,11.10
2023-01-11T04:46:19.995Z,10.73
2023-01-11T04:48:46.563Z,10.93
2023-01-11T04:51:13.140Z,11.95
2023-01-11T04:53:39.734Z,11.35
2023-01-11T04:56:07.191Z,11.18
2023-01-11T04:58:38.011Z,11.43
2023-01-11T05:01:14.051Z,12.07
2023-01-11T05:03:40.615Z,12.10
2023-01-11T05:06:08.138Z,11.50
2023-01-11T05:08:35.341Z,12.38
2023-01-11T05:11:08.805Z,12.65
2023-01-11T05:13:41.582Z,12.98
2023-01-11T05:16:18.631Z,11.95
2023-01-11T05:18:49.529Z,13.25
2023-01-11T05:21:19.019Z,12.90
2023-01-11T05:23:46.157Z,13.27
2023-01-11T05:26:17.762Z,12.95
2023-01-11T05:28:46.170Z,12.68
2023-01-11T05:31:13.498Z,10.23
2023-01-11T05:33:40.248Z,10.05
2023-01-11T05:36:10.317Z,8.45
2023-01-11T05:38:37.261Z,7.85
2023-01-11T05:41:07.311Z,7.80
2023-01-11T05:43:54.817Z,7.32
2023-01-11T05:46:22.361Z,7.18
2023-01-11T05:48:49.244Z,6.75
2023-01-11T05:51:15.942Z,5.97
2023-01-11T05:53:42.912Z,5.90
2023-01-11T05:56:09.548Z,6.18
2023-01-11T05:58:36.139Z,6.32
2023-01-11T06:01:02.975Z,6.63
2023-01-11T06:03:29.613Z,6.60
2023-01-11T06:05:58.208Z,6.72
2023-01-11T06:08:25.294Z,7.30
2023-01-11T06:10:57.087Z,7.18
2023-01-11T06:13:28.359Z,7.60
2023-01-11T06:16:02.774Z,7.68
2023-01-11T06:18:32.545Z,8.07
2023-01-11T06:21:01.103Z,8.05
2023-01-11T06:23:29.675Z,8.05
2023-01-11T06:25:56.407Z,8.05
2023-01-11T06:28:23.171Z,8.23
2023-01-11T06:30:57.161Z,8.23
2023-01-11T06:33:25.304Z,8.35
2023-01-11T06:35:52.577Z,8.93
2023-01-11T06:38:21.916Z,8.77
2023-01-11T06:41:00.508Z,8.73
2023-01-11T06:43:29.119Z,8.82
2023-01-11T06:45:56.585Z,8.50
2023-01-11T06:48:23.952Z,9.38
2023-01-11T06:50:52.275Z,9.20
2023-01-11T06:53:19.465Z,9.90
2023-01-11T06:55:50.781Z,8.60
2023-01-11T06:58:17.373Z,9.27
2023-01-11T07:00:44.123Z,9.48
2023-01-11T07:03:13.066Z,9.15
2023-01-11T07:05:40.521Z,9.05
2023-01-11T07:08:07.165Z,9.55
2023-01-11T07:10:33.819Z,9.50
2023-01-11T07:13:00.437Z,10.57
2023-01-11T07:15:27.260Z,10.10
2023-01-11T07:17:55.799Z,10.13
2023-01-11T07:20:23.120Z,10.45
2023-01-11T07:22:50.175Z,8.75
2023-01-11T07:25:17.337Z,3.88
2023-01-11T07:27:44.098Z,1.90
2023-01-11T07:30:11.298Z,1.63
2023-01-11T07:32:37.836Z,2.05
2023-01-11T07:35:04.696Z,1.42
2023-01-11T07:37:32.675Z,1.52
2023-01-11T07:39:59.420Z,1.27
2023-01-11T07:42:47.540Z,1.33
2023-01-11T07:45:14.378Z,1.10
2023-01-11T07:47:41.076Z,1.20
2023-01-11T07:50:08.692Z,1.10
2023-01-11T07:52:35.270Z,1.05
2023-01-11T07:55:03.574Z,1.25
2023-01-11T07:57:30.896Z,1.23
2023-01-11T07:59:57.802Z,1.30
2023-01-11T08:02:24.952Z,1.17
2023-01-11T08:04:51.851Z,1.40
2023-01-11T08:07:18.385Z,1.42
2023-01-11T08:09:44.971Z,1.60
2023-01-11T08:12:30.637Z,1.35
2023-01-11T08:14:57.358Z,1.58
2023-01-11T08:17:24.056Z,1.58
2023-01-11T08:19:50.732Z,1.88
2023-01-11T08:22:20.302Z,1.45
2023-01-11T08:24:46.888Z,1.70
2023-01-11T08:27:13.990Z,1.35
2023-01-11T08:29:44.014Z,1.40
2023-01-11T08:32:12.118Z,1.90
2023-01-11T08:34:39.145Z,1.60
2023-01-11T08:37:09.003Z,1.85
2023-01-11T08:39:35.888Z,1.80
2023-01-11T08:42:03.246Z,1.88
2023-01-11T08:44:34.155Z,4.15
2023-01-11T08:47:02.104Z,11.70
2023-01-11T08:49:30.462Z,45.15
2023-01-11T08:51:57.421Z,24.13
2023-01-11T08:54:25.017Z,12.38
2023-01-11T08:56:51.612Z,3.55
2023-01-11T08:59:19.798Z,2.92
2023-01-11T09:01:47.129Z,2.53
2023-01-11T09:04:24.137Z,4.95
2023-01-11T09:06:52.786Z,5.85
2023-01-11T09:09:19.868Z,3.28
2023-01-11T09:11:56.332Z,3.90
2023-01-11T09:14:27.659Z,3.20
2023-01-11T09:16:55.590Z,5.18
2023-01-11T09:19:22.557Z,5.97
2023-01-11T09:21:49.405Z,3.17
2023-01-11T09:24:15.971Z,4.10
2023-01-11T09:26:43.805Z,4.25
2023-01-11T09:29:11.712Z,3.88
2023-01-11T09:31:38.618Z,5.15
2023-01-11T09:34:07.011Z,5.63
2023-01-11T09:36:35.846Z,6.38
2023-01-11T09:39:07.516Z,4.10
2023-01-11T09:41:57.010Z,4.18
2023-01-11T09:44:26.685Z,7.63
2023-01-11T09:47:03.977Z,12.55
2023-01-11T09:49:40.703Z,12.10
2023-01-11T09:52:29.200Z,6.70
2023-01-11T09:54:59.458Z,11.20
2023-01-11T09:57:47.884Z,5.53
2023-01-11T10:00:40.734Z,3.55
2023-01-11T10:03:23.472Z,4.30
2023-01-11T10:05:59.665Z,4.43
2023-01-11T10:18:27.591Z,7.28
2023-01-11T10:18:39.409Z,4.95
2023-01-11T10:21:01.821Z,5.10
2023-01-11T10:23:49.472Z,4.95
2023-01-11T10:26:32.465Z,5.63
2023-01-11T10:29:16.972Z,5.25
2023-01-11T10:32:02.691Z,5.40
2023-01-11T10:34:59.652Z,4.70
2023-01-11T10:37:48.193Z,5.18
2023-01-11T10:40:37.745Z,3.30
2023-01-11T10:43:16.696Z,3.95
2023-01-11T10:45:50.200Z,3.47
2023-01-11T10:48:40.124Z,3.30
2023-01-11T10:51:24.948Z,3.72
2023-01-11T10:54:13.854Z,4.15
2023-01-11T10:57:02.773Z,2.83
2023-01-11T10:59:53.432Z,3.13
2023-01-11T11:02:52.362Z,2.90
2023-01-11T11:05:52.592Z,2.85
2023-01-11T11:08:48.751Z,2.83
2023-01-11T11:11:21.237Z,4.35
2023-01-11T11:14:21.144Z,4.88
2023-01-11T11:16:55.002Z,4.28
2023-01-11T11:19:26.465Z,3.22
2023-01-11T11:21:53.778Z,2.53
2023-01-11T11:24:46.758Z,2.08
2023-01-11T11:27:28.658Z,1.88
2023-01-11T11:29:57.201Z,1.73
2023-01-11T11:32:36.416Z,1.70
2023-01-11T11:35:04.351Z,2.03
2023-01-11T11:37:44.306Z,1.90
2023-01-11T11:40:40.303Z,1.40
2023-01-11T11:43:15.889Z,2.17
2023-01-11T11:45:57.187Z,1.67
2023-01-11T11:48:26.499Z,2.60
2023-01-11T11:50:56.180Z,1.92
2023-01-11T11:53:36.357Z,2.22
2023-01-11T11:56:27.459Z,2.45
2023-01-11T11:58:55.143Z,2.38
2023-01-11T12:01:32.431Z,2.30
2023-01-11T12:04:11.537Z,2.38
2023-01-11T12:06:38.239Z,2.53
2023-01-11T12:09:13.034Z,2.75
2023-01-11T12:11:42.109Z,2.38
2023-01-11T12:14:11.917Z,2.70
2023-01-11T12:16:41.304Z,2.65
2023-01-11T12:19:26.041Z,2.30
2023-01-11T12:21:53.042Z,2.60
2023-01-11T12:24:20.158Z,3.03
2023-01-11T12:26:57.848Z,2.60
2023-01-11T12:29:39.467Z,2.80
2023-01-11T12:32:39.838Z,2.35
2023-01-11T12:35:29.697Z,2.78
2023-01-11T12:38:15.307Z,2.40
2023-01-11T12:41:04.506Z,1.88
2023-01-11T12:43:59.977Z,1.10
2023-01-11T12:46:51.454Z,1.33
2023-01-11T12:49:36.299Z,1.40
2023-01-11T12:52:11.732Z,2.20
2023-01-11T12:55:10.712Z,1.77
2023-01-11T12:57:59.986Z,2.15
2023-01-11T13:01:16.872Z,1.67
2023-01-11T13:04:06.962Z,1.83
2023-01-11T13:06:46.161Z,1.67
2023-01-11T13:09:33.104Z,1.25
2023-01-11T13:12:00.666Z,1.38
2023-01-11T13:14:40.948Z,1.55
2023-01-11T13:17:29.476Z,1.55
2023-01-11T13:23:39.362Z,1.70
2023-01-11T13:26:22.961Z,1.60
2023-01-11T13:29:16.975Z,2.17
2023-01-11T13:31:47.415Z,2.22
2023-01-11T13:34:23.919Z,2.97
2023-01-11T13:37:06.580Z,1.70
2023-01-11T13:40:09.026Z,1.60
2023-01-11T13:42:40.523Z,1.92
2023-01-11T13:45:18.964Z,2.00
2023-01-11T13:48:02.017Z,2.25
2023-01-11T13:50:35.571Z,2.00
2023-01-11T13:53:11.444Z,1.70
2023-01-11T13:55:58.063Z,1.63
2023-01-11T13:58:36.964Z,1.80
2023-01-11T14:01:03.910Z,3.13
2023-01-11T14:03:46.788Z,2.35
2023-01-11T14:06:42.572Z,1.63
2023-01-11T14:09:43.860Z,1.90
2023-01-11T14:12:19.535Z,1.83
2023-01-11T14:15:08.856Z,1.90
2023-01-11T14:17:43.262Z,1.73
2023-01-11T14:20:30.059Z,1.67
2023-01-11T14:23:06.092Z,2.10
2023-01-11T14:25:38.618Z,1.50
2023-01-11T14:28:22.394Z,1.85
2023-01-11T14:31:06.944Z,2.47
2023-01-11T14:34:11.699Z,1.73
2023-01-11T14:36:43.954Z,1.98
2023-01-11T14:39:32.632Z,2.50
2023-01-11T14:42:35.771Z,2.08
2023-01-11T14:45:23.727Z,2.40
2023-01-11T14:48:08.218Z,2.13
2023-01-11T14:50:56.973Z,2.85
2023-01-11T14:53:28.043Z,2.20
2023-01-11T14:55:54.691Z,3.00
2023-01-11T14:58:30.304Z,2.67
2023-01-11T15:00:57.225Z,3.22
2023-01-11T15:03:36.184Z,2.33
2023-01-11T15:06:14.697Z,2.85
2023-01-11T15:08:43.003Z,3.15
2023-01-11T15:11:23.739Z,3.67
2023-01-11T15:14:30.974Z,3.78
2023-01-11T15:17:20.586Z,3.22
2023-01-11T15:19:49.134Z,3.08
2023-01-11T15:22:30.906Z,4.13
2023-01-11T15:25:00.958Z,2.50
2023-01-11T15:27:36.232Z,3.55
2023-01-11T15:30:07.498Z,3.20
2023-01-11T15:32:35.847Z,2.95
2023-01-11T15:35:32.666Z,3.08
2023-01-11T15:38:18.420Z,3.20
2023-01-11T15:40:46.897Z,4.07
2023-01-11T15:43:44.864Z,5.63
2023-01-11T15:46:44.987Z,3.58
2023-01-11T15:49:31.708Z,8.43
2023-01-11T15:52:20.591Z,4.68
2023-01-11T15:55:15.414Z,3.50
2023-01-11T15:58:10.964Z,3.30
2023-01-11T16:01:16.004Z,4.63
2023-01-11T16:04:24.588Z,3.10
2023-01-11T16:06:54.381Z,2.60
2023-01-11T16:09:33.459Z,3.50
2023-01-11T16:12:27.709Z,3.10
2023-01-11T16:18:56.735Z,3.10
2023-01-11T16:21:37.023Z,5.50
2023-01-11T16:24:16.257Z,4.75
2023-01-11T16:26:44.651Z,4.40
2023-01-11T16:29:22.708Z,3.63
2023-01-11T16:32:01.431Z,3.78
2023-01-11T16:34:30.588Z,3.75
2023-01-11T16:36:58.368Z,3.03
2023-01-11T16:39:29.198Z,2.88
2023-01-11T16:42:00.452Z,2.75
2023-01-11T16:44:33.301Z,3.97
2023-01-11T16:47:18.039Z,6.78
2023-01-11T16:49:52.206Z,3.55
2023-01-11T16:52:28.239Z,4.57
2023-01-11T16:54:57.096Z,2.92
2023-01-11T16:57:30.329Z,3.22
2023-01-11T17:00:02.446Z,4.22
2023-01-11T17:02:43.098Z,3.90
2023-01-11T17:05:30.019Z,4.82
2023-01-11T17:07:57.148Z,4.57
2023-01-11T17:10:30.208Z,4.15
2023-01-11T17:13:47.665Z,3.35
2023-01-11T17:16:16.651Z,4.68
2023-01-11T17:18:44.762Z,5.53
2023-01-11T17:21:26.562Z,5.32
2023-01-11T17:23:59.513Z,3.90
2023-01-11T17:26:33.314Z,4.70
2023-01-11T17:29:00.609Z,4.40
2023-01-11T17:31:34.359Z,4.78
2023-01-11T17:34:08.574Z,5.30
2023-01-11T17:36:36.186Z,4.97
2023-01-11T17:39:05.253Z,5.13
2023-01-11T17:41:51.015Z,6.20
2023-01-11T17:44:39.599Z,4.45
2023-01-11T17:47:10.680Z,5.95
2023-01-11T17:49:38.251Z,4.93
2023-01-11T17:52:19.936Z,4.22
2023-01-11T17:54:46.652Z,4.93
2023-01-11T17:57:14.038Z,3.47
2023-01-11T17:59:40.792Z,4.60
2023-01-11T18:02:13.609Z,4.70
2023-01-11T18:04:40.828Z,11.45
2023-01-11T18:07:15.439Z,4.30
2023-01-11T18:09:48.429Z,7.47
2023-01-11T18:12:19.517Z,7.40
2023-01-11T18:14:58.953Z,4.28
2023-01-11T18:17:30.160Z,4.72
2023-01-11T18:19:56.981Z,3.67
2023-01-11T18:22:37.014Z,4.32
2023-01-11T18:25:25.221Z,3.38
2023-01-11T18:28:12.111Z,4.07
2023-01-11T18:30:41.391Z,3.13
2023-01-11T18:33:32.706Z,3.90
2023-01-11T18:36:04.188Z,3.85
2023-01-11T18:38:37.777Z,3.42
2023-01-11T18:41:26.740Z,3.28
2023-01-11T18:43:55.064Z,4.57
2023-01-11T18:46:21.815Z,3.83
2023-01-11T18:48:48.454Z,3.55
2023-01-11T18:51:45.160Z,3.72
2023-01-11T18:54:16.750Z,4.28
2023-01-11T18:56:43.498Z,4.05
2023-01-11T18:59:10.388Z,3.20
2023-01-11T19:01:52.810Z,2.78
2023-01-11T19:04:23.440Z,3.72
2023-01-11T19:06:52.272Z,3.15
2023-01-11T19:09:18.927Z,3.03
2023-01-11T19:11:45.491Z,3.35
2023-01-11T19:14:13.040Z,3.03
2023-01-11T19:16:39.637Z,3.33
2023-01-11T19:19:06.401Z,2.92
2023-01-11T19:21:34.638Z,4.70
2023-01-11T19:24:01.590Z,4.18
2023-01-11T19:26:28.396Z,4.32
2023-01-11T19:28:55.628Z,3.03
2023-01-11T19:31:22.332Z,3.53
2023-01-11T19:33:48.924Z,3.97
2023-01-11T19:36:15.454Z,3.40
2023-01-11T19:38:42.012Z,3.72
2023-01-11T19:41:10.245Z,4.03
2023-01-11T19:43:36.882Z,4.93
2023-01-11T19:46:03.972Z,4.93
2023-01-11T19:48:33.004Z,6.10
2023-01-11T19:51:10.582Z,8.90
2023-01-11T19:53:37.817Z,5.05
2023-01-11T19:56:06.840Z,7.30
2023-01-11T19:58:36.064Z,4.28
2023-01-11T20:01:10.667Z,5.68
2023-01-11T20:03:37.811Z,6.47
2023-01-11T20:06:08.423Z,6.45
2023-01-11T20:08:38.567Z,7.90
2023-01-11T20:11:13.656Z,5.45
2023-01-11T20:13:40.796Z,4.82
2023-01-11T20:16:10.528Z,4.90
2023-01-11T20:18:37.510Z,5.97
2023-01-11T20:21:04.386Z,4.72
2023-01-11T20:23:32.857Z,5.45
2023-01-11T20:26:04.667Z,5.45
2023-01-11T20:28:32.531Z,5.53
2023-01-11T20:31:02.023Z,13.73
2023-01-11T20:33:28.913Z,6.65
2023-01-11T20:35:55.464Z,7.22
2023-01-11T20:38:22.690Z,5.50
2023-01-11T20:40:49.635Z,5.85
2023-01-11T20:43:17.365Z,4.57
2023-01-11T20:45:44.172Z,4.82
2023-01-11T20:48:11.077Z,5.15
2023-01-11T20:50:37.971Z,4.28
2023-01-11T20:53:04.783Z,3.90
2023-01-11T20:55:33.457Z,4.35
2023-01-11T20:58:00.789Z,6.85
2023-01-11T21:00:29.134Z,6.72
2023-01-11T21:02:56.633Z,5.43
2023-01-11T21:05:24.022Z,8.10
2023-01-11T21:07:53.471Z,10.10
2023-01-11T21:10:20.723Z,30.88
2023-01-11T21:15:14.180Z,7.07
2023-01-11T21:17:42.166Z,12.43
2023-01-11T21:20:09.506Z,8.00
2023-01-11T21:22:36.065Z,6.32
2023-01-11T21:25:02.683Z,5.63
2023-01-11T21:27:30.273Z,6.55
2023-01-11T21:29:57.184Z,7.20
2023-01-11T21:32:23.968Z,5.07
2023-01-11T21:34:50.540Z,5.18
2023-01-11T21:37:20.879Z,3.45
2023-01-11T21:39:47.761Z,3.17
2023-01-11T21:42:14.298Z,5.55
2023-01-11T21:44:41.011Z,3.65
2023-01-11T21:47:07.571Z,2.80
2023-01-11T21:49:35.565Z,3.90
2023-01-11T21:52:02.705Z,4.88
2023-01-11T21:54:29.306Z,4.20
2023-01-11T21:56:56.019Z,4.47
2023-01-11T21:59:23.357Z,3.25
2023-01-11T22:01:49.916Z,3.92
2023-01-11T22:04:20.528Z,3.67
2023-01-11T22:06:51.140Z,3.05
2023-01-11T22:09:18.911Z,4.00
2023-01-11T22:11:45.841Z,3.05
2023-01-11T22:14:12.597Z,3.05
2023-01-11T22:16:40.524Z,3.08
2023-01-11T22:19:07.681Z,2.50
2023-01-11T22:21:35.704Z,4.53
2023-01-11T22:24:02.815Z,2.30
2023-01-11T22:26:33.285Z,2.70
2023-01-11T22:29:12.464Z,2.70
2023-01-11T22:34:20.097Z,2.13
2023-01-11T22:36:47.181Z,2.28
2023-01-11T22:39:15.002Z,2.42
2023-01-11T22:41:42.180Z,10.65
2023-01-11T22:44:09.891Z,3.70
2023-01-11T22:46:37.308Z,3.15
2023-01-11T22:49:06.547Z,2.80
2023-01-11T22:51:34.215Z,3.33
2023-01-11T22:54:01.663Z,2.63
2023-01-11T22:56:29.636Z,2.92
2023-01-11T22:58:57.628Z,2.25
2023-01-11T23:01:27.692Z,1.92
2023-01-11T23:03:55.714Z,2.58
2023-01-11T23:06:27.545Z,3.10
2023-01-11T23:08:55.444Z,2.55
2023-01-11T23:11:46.659Z,2.65
2023-01-11T23:14:18.380Z,2.30
2023-01-11T23:16:46.676Z,2.40
2023-01-11T23:19:15.268Z,2.70
2023-01-11T23:21:43.564Z,3.80
2023-01-11T23:24:11.913Z,2.95
2023-01-11T23:26:38.615Z,3.55
2023-01-11T23:29:06.920Z,2.95
2023-01-11T23:31:35.154Z,2.50
2023-01-11T23:34:03.351Z,4.15
2023-01-11T23:36:33.154Z,3.08
2023-01-11T23:39:00.436Z,2.75
2023-01-11T23:41:47.344Z,2.00
2023-01-11T23:44:15.466Z,1.50
2023-01-11T23:47:02.222Z,1.80
2023-01-11T23:49:30.095Z,2.00
2023-01-11T23:51:57.633Z,1.92
2023-01-11T23:54:30.508Z,2.47
2023-01-11T23:56:58.587Z,1.67
2023-01-11T23:59:25.413Z,1.50
